Thursday, May 24, 2018, 9:37 AM GMT
Back to Local

CWPE, Point Lepreau, N. B.

Location: , , Canada Lat: 45.067
Local Time: 9:37 AM GMT ( 9:37 GMT) Lon: -66.467
Time Zone: GMT Elev: 3 ft

Show me the last for .
Show Coded

Time T Td Feel RH Dir Speed Gust Alt SLP Vis Weather Sky Remarks
2018-05-24 09:00 34 34 31 100 330° 3 - - 30.04 0 None
2018-05-24 08:00 32 32 - 99 20° 1 - - 30.02 0 None
2018-05-24 07:00 32 32 - 98 20° 2 - - 30.01 0 None
2018-05-24 06:00 35 34 30 97 330° 5 - - 30.01 0 None
2018-05-24 05:00 36 35 - 96 360° 2 - - 30.01 0 None
2018-05-24 04:00 37 36 35 95 10° 3 - - 30.01 0 None
2018-05-24 03:00 38 37 - 93 - Calm - - 30.01 0 None
2018-05-24 02:00 40 38 36 90 360° 6 - - 30.02 0 None
2018-05-24 01:00 42 40 37 90 10° 8 - - 30.01 0 None
2018-05-24 00:00 44 42 42 92 20° 5 - - 29.96 0 None
2018-05-23 23:00 45 42 42 89 10° 7 - - 29.94 0 None
2018-05-23 22:00 47 44 43 91 10° 7 - - 29.90 0 None
2018-05-23 21:00 51 49 - 91 320° 6 - - 29.87 0 None
2018-05-23 20:00 50 47 49 92 10° 3 - - 29.83 0 None
2018-05-23 19:00 50 47 43 91 340° 12 22 - 29.84 0 1-hr Precip Total: 0.11"
2018-05-23 18:00 50 48 - 92 290° 10 20 - 29.83 0 Pressure rising rapidly
2018-05-23 17:00 58 52 - 81 190° 8 - - 29.77 0 None
2018-05-23 16:00 57 49 - 75 220° 8 - - 29.78 0 None
2018-05-23 15:00 55 50 - 83 220° 7 - - 29.80 0 None
2018-05-23 14:00 55 50 - 81 240° 6 - - 29.81 0 None
2018-05-23 13:00 52 48 - 84 250° 6 - - 29.83 0 None
2018-05-23 12:00 50 47 - 90 130° 1 - - 29.84 0 None
2018-05-23 11:00 47 46 46 95 170° 3 - - 29.85 0 1-hr Precip Total: 0.02"
2018-05-23 10:00 47 46 - 96 190° 2 - - 29.86 0 None

Support USWX by starting your Amazon purchase here.